createdAt,value
2018-07-20T00:01:49.018Z,89.69
2018-07-20T00:04:18.080Z,85.79
2018-07-20T00:09:22.849Z,86.63
2018-07-20T00:14:27.617Z,84.54
2018-07-20T00:16:56.686Z,87.52
2018-07-20T00:22:02.458Z,84.85
2018-07-20T00:24:31.521Z,84.57
2018-07-20T00:27:00.653Z,87.69
2018-07-20T00:29:31.716Z,84.86
2018-07-20T00:32:00.821Z,87.49
2018-07-20T00:34:30.823Z,88.97
2018-07-20T00:39:35.585Z,87.61
2018-07-20T00:42:04.671Z,89.53
2018-07-20T00:44:34.694Z,89.49
2018-07-20T00:47:03.762Z,87.86
2018-07-20T00:49:32.801Z,85.68
2018-07-20T00:52:02.816Z,86.89
2018-07-20T00:54:31.871Z,85.72
2018-07-20T00:57:00.937Z,85.37
2018-07-20T00:59:31.953Z,84.70
2018-07-20T01:02:01.029Z,84.62
2018-07-20T01:04:30.086Z,83.43
2018-07-20T01:06:59.237Z,85.37
2018-07-20T01:09:28.349Z,84.26
2018-07-20T01:11:57.389Z,83.67
2018-07-20T01:17:02.718Z,84.07
2018-07-20T01:19:32.775Z,85.50
2018-07-20T01:24:37.664Z,84.86
2018-07-20T01:27:07.699Z,86.04
2018-07-20T01:29:37.716Z,85.31
2018-07-20T01:32:06.782Z,85.20
2018-07-20T01:34:35.853Z,86.08
2018-07-20T01:37:04.975Z,85.97
2018-07-20T01:39:34.026Z,87.77
2018-07-20T01:44:38.800Z,85.08
2018-07-20T01:47:07.848Z,85.91
2018-07-20T01:49:36.906Z,89.10
2018-07-20T01:52:05.977Z,89.13
2018-07-20T01:57:10.737Z,87.85
2018-07-20T01:59:40.745Z,86.44
2018-07-20T02:02:10.757Z,85.29
2018-07-20T02:04:40.815Z,86.23
2018-07-20T02:07:09.911Z,89.58
2018-07-20T02:09:38.977Z,89.58
2018-07-20T02:14:10.665Z,88.34
2018-07-20T02:16:39.721Z,90.11
2018-07-20T02:19:09.685Z,91.53
2018-07-20T02:24:14.470Z,91.07
2018-07-20T02:26:43.545Z,90.38
2018-07-20T02:31:48.319Z,91.09
2018-07-20T02:34:18.242Z,90.04
2018-07-20T02:36:47.303Z,90.05
2018-07-20T02:39:17.342Z,89.03
2018-07-20T02:41:46.430Z,89.68
2018-07-20T02:44:15.471Z,91.04
2018-07-20T02:49:21.365Z,90.58
2018-07-20T02:51:52.446Z,90.04
2018-07-20T02:54:22.482Z,88.53
2018-07-20T02:59:27.265Z,90.31
2018-07-20T03:01:57.352Z,90.47
2018-07-20T03:04:26.413Z,92.05
2018-07-20T03:06:55.469Z,91.69
2018-07-20T03:09:24.538Z,91.13
2018-07-20T03:11:56.813Z,91.38
2018-07-20T03:14:25.868Z,91.93
2018-07-20T03:16:54.912Z,90.62
2018-07-20T03:19:23.983Z,90.97
2018-07-20T03:21:53.037Z,91.39
2018-07-20T03:24:22.154Z,92.30
2018-07-20T03:26:52.110Z,92.04
2018-07-20T03:29:22.189Z,90.72
2018-07-20T03:31:51.237Z,90.64
2018-07-20T03:34:20.293Z,90.56
2018-07-20T03:36:49.578Z,90.02
2018-07-20T03:39:18.639Z,90.46
2018-07-20T03:41:47.690Z,90.92
2018-07-20T03:46:52.522Z,88.63
2018-07-20T03:49:22.520Z,90.58
2018-07-20T03:51:51.579Z,92.37
2018-07-20T03:54:20.739Z,92.26
2018-07-20T03:56:49.761Z,90.84
2018-07-20T04:01:54.590Z,92.08
2018-07-20T04:04:24.601Z,90.89
2018-07-20T04:09:30.273Z,89.88
2018-07-20T04:11:59.321Z,89.73
2018-07-20T04:14:28.387Z,90.64
2018-07-20T04:16:57.633Z,90.44
2018-07-20T04:19:26.687Z,91.11
2018-07-20T04:21:55.737Z,88.71
2018-07-20T04:24:24.798Z,88.97
2018-07-20T04:29:29.637Z,88.07
2018-07-20T04:31:59.617Z,87.19
2018-07-20T04:34:30.837Z,88.12
2018-07-20T04:36:59.890Z,87.90
2018-07-20T04:39:28.978Z,87.01
2018-07-20T04:44:33.751Z,85.62
2018-07-20T04:47:02.818Z,85.23
2018-07-20T04:49:32.404Z,85.65
2018-07-20T04:52:01.506Z,84.54
2018-07-20T04:54:31.555Z,84.99
2018-07-20T04:57:04.546Z,84.39
2018-07-20T05:02:11.733Z,84.54
2018-07-20T05:04:41.920Z,84.89
2018-07-20T05:07:10.963Z,84.65
2018-07-20T05:09:40.079Z,84.29
2018-07-20T05:14:44.862Z,83.49
2018-07-20T05:17:14.204Z,84.34
2018-07-20T05:22:19.633Z,84.18
2018-07-20T05:24:49.777Z,85.34
2018-07-20T05:27:18.842Z,85.26
2018-07-20T05:29:48.851Z,82.76
2018-07-20T05:32:18.121Z,82.50
2018-07-20T05:34:47.322Z,80.19
2018-07-20T05:37:16.362Z,81.61
2018-07-20T05:39:46.366Z,81.40
2018-07-20T05:42:15.861Z,80.56
2018-07-20T05:49:57.059Z,81.33
2018-07-20T05:52:26.131Z,81.23
2018-07-20T05:57:40.039Z,81.57
2018-07-20T06:00:11.025Z,80.00
2018-07-20T06:02:40.099Z,79.52
2018-07-20T06:05:12.507Z,77.04
2018-07-20T06:10:17.353Z,78.53
2018-07-20T06:12:46.412Z,76.18
2018-07-20T06:15:15.479Z,76.55
2018-07-20T06:17:44.535Z,78.93
2018-07-20T06:20:13.596Z,79.13
2018-07-20T06:22:44.645Z,78.47
2018-07-20T06:25:22.324Z,77.52
2018-07-20T06:30:27.805Z,74.67
2018-07-20T06:33:02.342Z,74.19
2018-07-20T06:38:07.664Z,73.64
2018-07-20T06:40:36.769Z,71.39
2018-07-20T06:43:06.723Z,71.87
2018-07-20T06:45:35.786Z,72.79
2018-07-20T06:48:05.192Z,73.38
2018-07-20T06:50:34.252Z,72.54
2018-07-20T06:53:03.305Z,68.88
2018-07-20T06:58:08.097Z,66.53
2018-07-20T07:00:37.294Z,64.38
2018-07-20T07:08:17.905Z,63.42
2018-07-20T07:10:47.617Z,61.77
2018-07-20T07:13:16.832Z,59.51
2018-07-20T07:15:45.892Z,62.90
2018-07-20T07:18:15.913Z,60.65
2018-07-20T07:23:25.918Z,56.00
2018-07-20T07:25:55.908Z,58.19
2018-07-20T07:28:30.281Z,57.84
2018-07-20T07:30:59.347Z,55.04
2018-07-20T07:33:28.407Z,60.29
2018-07-20T07:35:59.444Z,56.26
2018-07-20T07:38:28.838Z,57.07
2018-07-20T07:43:33.726Z,55.84
2018-07-20T07:46:05.875Z,55.67
2018-07-20T07:48:35.018Z,55.78
2018-07-20T07:51:04.077Z,52.90
2018-07-20T07:53:33.330Z,52.42
2018-07-20T07:56:02.395Z,50.53
2018-07-20T08:01:07.566Z,53.39
2018-07-20T08:03:36.741Z,48.52
2018-07-20T08:06:09.526Z,48.78
2018-07-20T08:08:40.574Z,47.99
2018-07-20T08:11:09.659Z,50.73
2018-07-20T08:13:46.146Z,48.95
2018-07-20T08:18:51.012Z,47.68
2018-07-20T08:21:21.003Z,48.80
2018-07-20T08:23:51.592Z,45.80
2018-07-20T08:26:20.646Z,44.31
2018-07-20T08:31:26.849Z,46.56
2018-07-20T08:33:55.897Z,45.69
2018-07-20T08:36:25.837Z,46.55
2018-07-20T08:38:55.751Z,48.80
2018-07-20T08:41:24.807Z,50.13
2018-07-20T08:43:53.875Z,48.63
2018-07-20T08:46:24.150Z,48.93
2018-07-20T08:48:53.290Z,46.51
2018-07-20T08:51:22.315Z,45.19
2018-07-20T08:53:51.387Z,47.35
2018-07-20T08:56:20.767Z,45.41
2018-07-20T08:58:49.833Z,45.10
2018-07-20T09:01:19.856Z,46.13
2018-07-20T09:03:49.092Z,44.91
2018-07-20T09:06:18.349Z,44.54
2018-07-20T09:08:47.398Z,42.15
2018-07-20T09:11:16.453Z,42.91
2018-07-20T09:13:46.913Z,42.89
2018-07-20T09:18:52.066Z,40.72
2018-07-20T09:21:21.337Z,41.01
2018-07-20T09:23:54.344Z,40.96
2018-07-20T09:26:23.402Z,38.98
2018-07-20T09:28:52.443Z,37.87
2018-07-20T09:33:57.329Z,36.43
2018-07-20T09:36:26.741Z,34.84
2018-07-20T09:38:57.883Z,32.13
2018-07-20T09:41:26.914Z,33.67
2018-07-20T09:43:57.945Z,34.69
2018-07-20T09:46:27.016Z,36.80
2018-07-20T09:48:56.779Z,33.63
2018-07-20T09:51:25.802Z,32.69
2018-07-20T09:56:30.737Z,29.58
2018-07-20T09:58:59.783Z,28.10
2018-07-20T10:01:29.082Z,28.92
2018-07-20T10:03:58.296Z,28.94
2018-07-20T10:06:27.323Z,27.78
2018-07-20T10:11:32.184Z,24.93
2018-07-20T10:14:01.258Z,26.54
2018-07-20T10:16:31.015Z,27.52
2018-07-20T10:19:00.066Z,23.82
2018-07-20T10:21:29.098Z,24.50
2018-07-20T10:24:00.218Z,25.28
2018-07-20T10:26:29.405Z,24.73
2018-07-20T10:28:58.473Z,26.52
2018-07-20T10:31:28.432Z,30.13
2018-07-20T10:33:57.480Z,29.01
2018-07-20T10:36:27.689Z,25.48
2018-07-20T10:38:56.772Z,24.84
2018-07-20T10:41:25.838Z,25.78
2018-07-20T10:43:55.172Z,25.80
2018-07-20T10:46:24.416Z,23.30
2018-07-20T10:51:31.248Z,24.45
2018-07-20T10:54:00.294Z,24.62
2018-07-20T10:59:06.092Z,26.30
2018-07-20T11:04:11.062Z,25.75
2018-07-20T11:06:42.141Z,27.55
2018-07-20T11:11:48.400Z,23.72
2018-07-20T11:14:17.458Z,25.82
2018-07-20T11:16:46.525Z,23.49
2018-07-20T11:19:15.984Z,22.05
2018-07-20T11:21:45.045Z,21.40
2018-07-20T11:24:19.416Z,21.76
2018-07-20T11:26:48.454Z,23.99
2018-07-20T11:29:17.552Z,23.70
2018-07-20T11:31:47.031Z,22.39
2018-07-20T11:34:16.085Z,22.81
2018-07-20T11:39:20.885Z,22.92
2018-07-20T11:41:49.955Z,20.98
2018-07-20T11:44:19.105Z,22.86
2018-07-20T11:46:52.701Z,23.33
2018-07-20T11:49:23.755Z,22.50
2018-07-20T11:51:52.820Z,24.14
2018-07-20T11:54:21.879Z,23.69
2018-07-20T11:56:50.932Z,24.40
2018-07-20T11:59:20.350Z,23.60
2018-07-20T12:01:53.494Z,23.63
2018-07-20T12:06:58.457Z,21.93
2018-07-20T12:09:27.488Z,23.66
2018-07-20T12:11:56.533Z,18.90
2018-07-20T12:14:25.913Z,20.00
2018-07-20T12:16:54.961Z,17.44
2018-07-20T12:19:24.021Z,18.44
2018-07-20T12:24:30.885Z,17.18
2018-07-20T12:27:00.910Z,17.94
2018-07-20T12:29:30.277Z,19.27
2018-07-20T12:31:59.618Z,23.60
2018-07-20T12:34:28.653Z,20.70
2018-07-20T12:36:57.717Z,19.88
2018-07-20T12:39:27.428Z,22.57
2018-07-20T12:41:56.489Z,24.51
2018-07-20T12:44:25.567Z,21.08
2018-07-20T12:46:54.839Z,20.55
2018-07-20T12:49:26.272Z,18.84
2018-07-20T12:51:59.087Z,17.91
2018-07-20T12:54:30.468Z,18.49
2018-07-20T12:56:59.528Z,17.16
2018-07-20T12:59:28.578Z,17.81
2018-07-20T13:01:57.875Z,18.58
2018-07-20T13:04:26.931Z,18.44
2018-07-20T13:06:57.961Z,23.06
2018-07-20T13:09:27.008Z,23.76
2018-07-20T13:14:32.946Z,24.34
2018-07-20T13:17:02.958Z,21.61
2018-07-20T13:19:32.412Z,22.71
2018-07-20T13:22:02.359Z,21.24
2018-07-20T13:24:31.423Z,25.29
2018-07-20T13:27:00.798Z,24.43
2018-07-20T13:29:31.041Z,24.45
2018-07-20T13:32:00.076Z,25.42
2018-07-20T13:37:04.993Z,20.64
2018-07-20T13:42:09.846Z,23.91
2018-07-20T13:44:40.875Z,24.87
2018-07-20T13:47:09.937Z,25.79
2018-07-20T13:49:39.340Z,24.38
2018-07-20T13:52:08.409Z,27.00
2018-07-20T13:54:45.686Z,26.22
2018-07-20T13:57:20.672Z,27.64
2018-07-20T13:59:51.822Z,28.95
2018-07-20T14:02:20.926Z,27.42
2018-07-20T14:04:51.980Z,31.00
2018-07-20T14:07:21.046Z,29.82
2018-07-20T14:12:27.025Z,32.02
2018-07-20T14:17:36.092Z,32.75
2018-07-20T14:20:05.122Z,34.14
2018-07-20T14:22:34.170Z,34.04
2018-07-20T14:25:03.558Z,35.35
2018-07-20T14:32:46.649Z,37.83
2018-07-20T14:35:15.704Z,36.83
2018-07-20T14:37:45.696Z,36.26
2018-07-20T14:40:17.006Z,38.29
2018-07-20T14:42:46.058Z,37.28
2018-07-20T14:45:15.150Z,37.24
2018-07-20T14:47:48.335Z,36.97
2018-07-20T14:50:21.314Z,35.22
2018-07-20T14:52:58.293Z,36.14
2018-07-20T14:55:28.623Z,37.40
2018-07-20T14:58:00.905Z,40.75
2018-07-20T15:00:32.345Z,39.00
2018-07-20T15:05:39.305Z,34.41
2018-07-20T15:08:08.345Z,33.31
2018-07-20T15:13:13.489Z,29.12
2018-07-20T15:15:46.313Z,29.77
2018-07-20T15:18:16.323Z,25.82
2018-07-20T15:20:45.371Z,24.02
2018-07-20T15:23:15.474Z,25.81
2018-07-20T15:25:45.658Z,26.26
2018-07-20T15:28:14.711Z,23.50
2018-07-20T15:30:44.788Z,25.52
2018-07-20T15:33:13.840Z,22.85
2018-07-20T15:35:43.121Z,21.78
2018-07-20T15:38:12.207Z,20.85
2018-07-20T15:40:42.207Z,21.27
2018-07-20T15:43:12.268Z,21.51
2018-07-20T15:45:51.816Z,21.20
2018-07-20T15:48:11.869Z,21.53
2018-07-20T15:50:40.907Z,20.74
2018-07-20T15:53:37.988Z,19.98
2018-07-20T15:55:41.354Z,22.12
2018-07-20T16:00:46.533Z,21.16
2018-07-20T16:03:15.811Z,20.63
2018-07-20T16:05:44.919Z,18.94
2018-07-20T16:08:13.921Z,18.92
2018-07-20T16:10:43.337Z,19.41
2018-07-20T16:13:12.397Z,19.59
2018-07-20T16:15:42.397Z,18.95
2018-07-20T16:18:11.562Z,20.94
2018-07-20T16:20:41.071Z,21.41
2018-07-20T16:23:10.189Z,20.12
2018-07-20T16:25:39.277Z,22.30
2018-07-20T16:28:09.293Z,26.61
2018-07-20T16:30:43.632Z,25.72
2018-07-20T16:33:13.671Z,26.37
2018-07-20T16:35:42.723Z,26.18
2018-07-20T16:40:48.318Z,26.47
2018-07-20T16:45:54.214Z,27.95
2018-07-20T16:48:23.265Z,28.64
2018-07-20T16:50:52.321Z,29.22
2018-07-20T16:53:21.675Z,29.31
2018-07-20T16:55:50.768Z,29.74
2018-07-20T16:58:20.784Z,29.44
2018-07-20T17:00:49.815Z,29.82
2018-07-20T17:03:20.867Z,30.57
2018-07-20T17:05:51.174Z,30.20
2018-07-20T17:08:20.217Z,32.05
2018-07-20T17:10:49.281Z,32.33
2018-07-20T17:13:18.341Z,32.66
2018-07-20T17:15:47.750Z,32.65
2018-07-20T17:20:54.511Z,33.10
2018-07-20T17:23:24.620Z,32.88
2018-07-20T17:25:55.743Z,32.29
2018-07-20T17:28:24.793Z,32.43
2018-07-20T17:30:53.851Z,34.21
2018-07-20T17:33:22.907Z,35.43
2018-07-20T17:35:55.624Z,34.81
2018-07-20T17:38:26.730Z,34.88
2018-07-20T17:40:57.364Z,34.46
2018-07-20T17:43:26.420Z,35.28
2018-07-20T17:48:32.471Z,38.55
2018-07-20T17:51:01.518Z,38.54
2018-07-20T17:53:32.554Z,40.45
2018-07-20T17:56:01.623Z,44.09
2018-07-20T17:58:30.894Z,45.20
2018-07-20T18:01:00.077Z,43.14
2018-07-20T18:03:31.101Z,42.65
2018-07-20T18:06:00.152Z,44.30
2018-07-20T18:11:09.304Z,49.74
2018-07-20T18:13:38.429Z,49.67
2018-07-20T18:16:07.538Z,48.92
2018-07-20T18:18:36.582Z,52.15
2018-07-20T18:21:05.800Z,53.45
2018-07-20T18:23:34.906Z,55.13
2018-07-20T18:26:03.945Z,57.54
2018-07-20T18:31:08.931Z,58.04
2018-07-20T18:33:38.935Z,54.53
2018-07-20T18:36:07.970Z,57.98
2018-07-20T18:38:37.022Z,57.06
2018-07-20T18:41:06.125Z,53.86
2018-07-20T18:43:35.187Z,57.82
2018-07-20T18:46:04.255Z,57.67
2018-07-20T18:48:33.308Z,58.41
2018-07-20T18:53:40.205Z,58.89
2018-07-20T18:58:44.702Z,56.95
2018-07-20T19:01:13.810Z,63.59
2018-07-20T19:03:43.871Z,61.66
2018-07-20T19:06:13.899Z,68.26
2018-07-20T19:11:18.776Z,60.07
2018-07-20T19:13:49.881Z,58.66
2018-07-20T19:16:18.937Z,54.90
2018-07-20T19:18:47.998Z,53.15
2018-07-20T19:23:52.928Z,52.56
2018-07-20T19:26:21.904Z,52.06
2018-07-20T19:28:50.981Z,53.29
2018-07-20T19:31:20.041Z,50.98
2018-07-20T19:33:49.095Z,50.64
2018-07-20T19:36:18.140Z,52.04
2018-07-20T19:41:23.020Z,51.21
2018-07-20T19:43:52.087Z,53.01
2018-07-20T19:46:22.113Z,53.76
2018-07-20T19:48:51.157Z,53.02
2018-07-20T19:51:20.215Z,56.26
2018-07-20T19:53:49.276Z,54.03
2018-07-20T19:58:54.147Z,53.99
2018-07-20T20:01:23.146Z,53.79
2018-07-20T20:03:53.157Z,54.29
2018-07-20T20:06:22.250Z,53.45
2018-07-20T20:08:51.365Z,53.47
2018-07-20T20:11:20.433Z,55.01
2018-07-20T20:13:49.477Z,55.73
2018-07-20T20:16:18.540Z,56.86
2018-07-20T20:21:23.334Z,58.40
2018-07-20T20:26:36.567Z,61.02
2018-07-20T20:29:06.570Z,62.02
2018-07-20T20:31:35.625Z,62.63
2018-07-20T20:34:05.608Z,61.85
2018-07-20T20:36:35.623Z,60.01
2018-07-20T20:39:05.638Z,61.52
2018-07-20T20:41:34.834Z,62.62
2018-07-20T20:44:04.874Z,64.09
2018-07-20T20:46:33.933Z,66.54
2018-07-20T20:49:02.991Z,67.17
2018-07-20T20:51:32.068Z,65.63
2018-07-20T20:54:01.106Z,63.14
2018-07-20T20:56:30.321Z,64.84
2018-07-20T20:58:59.444Z,66.70
2018-07-20T21:01:29.378Z,70.25
2018-07-20T21:03:58.424Z,72.04
2018-07-20T21:06:27.491Z,72.72
2018-07-20T21:08:56.562Z,78.85
2018-07-20T21:11:25.624Z,81.45
2018-07-20T21:13:54.710Z,85.36
2018-07-20T21:16:24.701Z,87.01
2018-07-20T21:18:54.732Z,86.19
2018-07-20T21:21:23.821Z,87.32
2018-07-20T21:23:54.858Z,90.69
2018-07-20T21:26:23.930Z,91.41
2018-07-20T21:28:53.047Z,90.10
2018-07-20T21:33:57.887Z,88.28
2018-07-20T21:36:28.859Z,91.74
2018-07-20T21:38:57.921Z,92.65
2018-07-20T21:41:26.981Z,93.44
2018-07-20T21:43:56.051Z,94.77
2018-07-20T21:46:26.084Z,96.18
2018-07-20T21:48:58.249Z,92.69
2018-07-20T21:51:27.305Z,97.23
2018-07-20T21:53:56.414Z,100.00
2018-07-20T21:56:25.534Z,99.22
2018-07-20T21:58:54.733Z,100.00
2018-07-20T22:01:24.775Z,100.00
2018-07-20T22:03:57.358Z,100.00
2018-07-20T22:06:28.394Z,100.00
2018-07-20T22:08:57.453Z,100.00
2018-07-20T22:11:26.530Z,100.00
2018-07-20T22:13:55.601Z,100.00
2018-07-20T22:16:29.783Z,100.00
2018-07-20T22:18:58.842Z,100.00
2018-07-20T22:21:27.911Z,100.00
2018-07-20T22:23:56.980Z,100.00
2018-07-20T22:26:26.046Z,100.00
2018-07-20T22:28:56.118Z,100.00
2018-07-20T22:31:25.192Z,100.00
2018-07-20T22:33:54.274Z,100.00
2018-07-20T22:36:23.374Z,100.00
2018-07-20T22:38:52.449Z,100.00
2018-07-20T22:41:21.598Z,100.00
2018-07-20T22:43:50.638Z,100.00
2018-07-20T22:46:20.654Z,100.00
2018-07-20T22:48:52.905Z,100.00
2018-07-20T22:51:22.937Z,100.00
2018-07-20T22:53:52.957Z,100.00
2018-07-20T22:56:24.001Z,100.00
2018-07-20T22:58:53.067Z,100.00
2018-07-20T23:01:27.122Z,100.00
2018-07-20T23:03:56.187Z,100.00
2018-07-20T23:09:01.489Z,100.00
2018-07-20T23:11:31.490Z,100.00
2018-07-20T23:14:01.507Z,100.00
2018-07-20T23:16:30.571Z,100.00
2018-07-20T23:18:59.630Z,100.00
2018-07-20T23:21:28.710Z,100.00
2018-07-20T23:23:57.773Z,100.00
2018-07-20T23:26:26.849Z,100.00
2018-07-20T23:28:55.922Z,100.00
2018-07-20T23:36:36.621Z,100.00
2018-07-20T23:39:06.641Z,100.00
2018-07-20T23:41:35.726Z,100.00
2018-07-20T23:44:04.805Z,100.00
2018-07-20T23:46:33.881Z,100.00
2018-07-20T23:49:02.921Z,100.00
2018-07-20T23:54:07.691Z,100.00
2018-07-20T23:56:36.777Z,100.00
2018-07-20T23:59:06.781Z,100.00
